Terminal Aerodrome Forecast
Issued by NWS Missoula, MT

Home | Current Version | Previous Version | Text Only | Print | Product List | Glossary On
Versions: 1 2 3 4 5 6 7 8 9 10 11 12
000
FTUS45 KMSO 011730
TAFBTM
TAF
KBTM 011730Z 0118/0218 33008KT P6SM FEW060
     FM012100 29014KT P6SM FEW100
     FM020200 VRB05KT P6SM SKC=

USA.gov is the U.S. government's official web portal to all federal, state and local government web resources and services.